Time;durP1;ratioP1;P1;durP2;ratioP2;P2;SDS_P1;SDS_P2;PMS_P1;PMS_P2;Temp;Humidity;BMP_temperature;BMP_pressure;BME280_temperature;BME280_humidity;BME280_pressure;Samples;Min_cycle;Max_cycle;Signal;HPM_P1;HPM_P2
2022/04/07 00:01:19;;;;;;;2.23;1.60;;;8.50;99.90;;;;;;5036351;28;20186;-82
2022/04/07 00:03:45;;;;;;;1.63;1.50;;;8.40;99.90;;;;;;5037619;28;20543;-83
2022/04/07 00:06:11;;;;;;;1.97;1.50;;;;;;;;;;5039853;28;20258;-83
2022/04/07 00:08:37;;;;;;;1.30;1.20;;;;;;;;;;5042043;28;20194;-83
2022/04/07 00:11:03;;;;;;;3.53;1.40;;;8.40;99.90;;;;;;5040608;28;20525;-83
2022/04/07 00:13:29;;;;;;;1.50;1.40;;;8.40;99.90;;;;;;5040466;28;20206;-83
2022/04/07 00:15:56;;;;;;;2.37;1.70;;;8.30;99.90;;;;;;5041124;28;20182;-82
2022/04/07 00:18:22;;;;;;;2.80;1.50;;;8.30;99.90;;;;;;5042174;28;20192;-83
2022/04/07 00:20:48;;;;;;;3.87;2.20;;;8.30;99.90;;;;;;5040446;28;20187;-83
2022/04/07 00:23:14;;;;;;;2.93;1.73;;;8.30;99.90;;;;;;5041434;28;20185;-83
2022/04/07 00:25:39;;;;;;;2.43;2.13;;;8.30;99.90;;;;;;5040213;28;20546;-83
2022/04/07 00:28:05;;;;;;;1.77;1.60;;;8.40;99.90;;;;;;5041289;28;20181;-83
2022/04/07 00:30:31;;;;;;;4.43;2.20;;;;;;;;;;5040079;28;20213;-84
2022/04/07 00:32:57;;;;;;;3.77;2.10;;;8.40;99.90;;;;;;5040565;28;20273;-84
2022/04/07 00:35:25;;;;;;;2.37;2.17;;;8.40;99.90;;;;;;5042475;28;20198;-83
2022/04/07 00:37:50;;;;;;;7.00;2.10;;;8.50;99.90;;;;;;5040127;28;20194;-84
2022/04/07 00:40:18;;;;;;;2.60;2.27;;;;;;;;;;5040977;28;20231;-83
2022/04/07 00:42:45;;;;;;;1.77;1.63;;;8.50;99.90;;;;;;5041830;28;20170;-84
2022/04/07 00:45:11;;;;;;;3.53;2.13;;;;;;;;;;5041419;28;20178;-83
2022/04/07 00:47:38;;;;;;;4.03;2.10;;;8.30;99.90;;;;;;5041580;28;20409;-83
2022/04/07 00:50:04;;;;;;;1.97;1.87;;;8.30;99.90;;;;;;5040778;28;20202;-83
2022/04/07 00:52:31;;;;;;;2.27;2.10;;;8.30;99.90;;;;;;5039240;28;20182;-84
2022/04/07 00:54:58;;;;;;;2.30;2.10;;;8.30;99.90;;;;;;5040549;28;20181;-83
2022/04/07 00:57:24;;;;;;;3.53;1.70;;;8.30;99.90;;;;;;5045941;28;20182;-83
2022/04/07 00:59:50;;;;;;;2.30;2.10;;;8.20;99.90;;;;;;5041472;28;20201;-83
2022/04/07 01:02:16;;;;;;;2.53;2.00;;;8.20;99.90;;;;;;5042278;28;20178;-83
2022/04/07 01:04:42;;;;;;;2.17;1.97;;;8.20;99.90;;;;;;5056965;28;20179;-83
2022/04/07 01:07:08;;;;;;;1.83;1.70;;;;;;;;;;5044809;28;20181;-83
2022/04/07 01:09:35;;;;;;;2.43;2.00;;;8.20;99.90;;;;;;5038648;28;20221;-83
2022/04/07 01:12:01;;;;;;;3.90;2.30;;;;;;;;;;5038209;28;20268;-83
2022/04/07 01:14:27;;;;;;;2.40;1.90;;;8.20;99.90;;;;;;5038680;28;20452;-83
2022/04/07 01:16:53;;;;;;;2.93;2.23;;;;;;;;;;5038208;28;20182;-83
2022/04/07 01:19:18;;;;;;;2.80;1.67;;;8.20;99.90;;;;;;5038635;28;20198;-83
2022/04/07 01:21:44;;;;;;;2.13;1.93;;;8.20;99.90;;;;;;5040283;28;20663;-83
2022/04/07 01:24:12;;;;;;;1.97;1.77;;;8.20;99.90;;;;;;5040268;28;20234;-82
2022/04/07 01:26:38;;;;;;;1.63;1.53;;;8.20;99.90;;;;;;5040530;28;20581;-82
2022/04/07 01:29:10;;;;;;;2.20;1.67;;;8.20;99.90;;;;;;5052858;28;20198;-82
2022/04/07 01:31:37;;;;;;;1.60;1.50;;;8.30;99.90;;;;;;5054920;28;20201;-83
2022/04/07 01:34:06;;;;;;;2.23;1.83;;;8.20;99.90;;;;;;5053017;28;20228;-83
2022/04/07 01:36:36;;;;;;;2.00;1.80;;;8.20;99.90;;;;;;5038701;28;20171;-83
2022/04/07 01:39:03;;;;;;;1.90;1.77;;;8.20;99.90;;;;;;5038486;28;20217;-83
2022/04/07 01:41:30;;;;;;;1.27;1.17;;;8.30;99.90;;;;;;5038836;28;20175;-83
2022/04/07 01:43:58;;;;;;;1.23;1.07;;;8.30;99.90;;;;;;5037335;28;20189;-83
2022/04/07 01:46:24;;;;;;;1.50;1.40;;;8.30;99.90;;;;;;5039072;28;20232;-83
2022/04/07 01:48:53;;;;;;;1.93;1.53;;;8.30;99.90;;;;;;5037078;28;20194;-83
2022/04/07 01:51:19;;;;;;;1.87;1.57;;;8.30;99.90;;;;;;5037161;28;20197;-83
2022/04/07 01:53:46;;;;;;;1.50;1.40;;;8.10;99.90;;;;;;5036702;28;20182;-82
2022/04/07 01:56:12;;;;;;;1.50;1.40;;;8.10;99.90;;;;;;5037832;28;20500;-83
2022/04/07 01:58:39;;;;;;;1.87;1.40;;;8.10;99.90;;;;;;5038704;28;20194;-82
2022/04/07 02:01:05;;;;;;;1.57;1.47;;;8.10;99.90;;;;;;5037385;28;20849;-80
2022/04/07 02:03:31;;;;;;;1.33;1.20;;;8.10;99.90;;;;;;5037270;28;20174;-81
2022/04/07 02:06:13;;;;;;;2.40;1.20;;;8.10;99.90;;;;;;5037814;28;20171;-82
2022/04/07 02:08:39;;;;;;;1.30;1.20;;;8.10;99.90;;;;;;5037703;28;20213;-83
2022/04/07 02:11:05;;;;;;;1.87;1.47;;;8.10;99.90;;;;;;5037113;28;20278;-83
2022/04/07 02:13:33;;;;;;;1.33;1.23;;;8.00;99.90;;;;;;5036764;28;20212;-83
2022/04/07 02:16:00;;;;;;;1.20;1.10;;;8.00;99.90;;;;;;5038165;28;20219;-83
2022/04/07 02:18:26;;;;;;;2.20;1.20;;;8.00;99.90;;;;;;5046810;28;20178;-83
2022/04/07 02:20:51;;;;;;;1.30;1.13;;;8.00;99.90;;;;;;5057397;28;20173;-83
2022/04/07 02:23:17;;;;;;;1.00;0.90;;;8.00;99.90;;;;;;5043088;28;20167;-83
2022/04/07 02:25:43;;;;;;;1.30;1.20;;;;;;;;;;5038875;28;20177;-82
2022/04/07 02:28:09;;;;;;;1.20;1.10;;;8.00;99.90;;;;;;5038668;28;20213;-83
2022/04/07 02:30:35;;;;;;;1.30;1.00;;;8.00;99.90;;;;;;5047029;28;20202;-82
2022/04/07 02:33:01;;;;;;;1.20;1.10;;;;;;;;;;5051690;28;20174;-82
2022/04/07 02:35:26;;;;;;;1.50;1.40;;;7.90;99.90;;;;;;5036242;28;20262;-83
2022/04/07 02:37:52;;;;;;;1.23;0.73;;;;;;;;;;5035949;28;20194;-83
2022/04/07 02:40:18;;;;;;;1.10;1.00;;;7.80;99.90;;;;;;5035945;28;20531;-83
2022/04/07 02:42:44;;;;;;;0.90;0.90;;;7.90;99.90;;;;;;5036627;28;20178;-83
2022/04/07 02:45:10;;;;;;;1.20;1.00;;;;;;;;;;5036144;28;20178;-83
2022/04/07 02:47:40;;;;;;;1.47;1.37;;;7.80;99.90;;;;;;5035250;28;20178;-83
2022/04/07 02:50:06;;;;;;;1.30;1.17;;;7.70;99.90;;;;;;5034910;28;20206;-82
2022/04/07 02:52:32;;;;;;;1.33;1.20;;;7.70;99.90;;;;;;5035394;28;20472;-83
2022/04/07 02:54:58;;;;;;;2.03;0.90;;;7.60;99.90;;;;;;5035236;28;20174;-83
2022/04/07 02:57:25;;;;;;;1.23;1.00;;;7.60;99.90;;;;;;5037516;28;20181;-82
2022/04/07 02:59:51;;;;;;;1.30;1.20;;;7.60;99.90;;;;;;5035652;28;20562;-83
2022/04/07 03:02:18;;;;;;;1.23;1.13;;;7.50;99.90;;;;;;5036263;28;20178;-81
2022/04/07 03:04:44;;;;;;;1.10;0.97;;;7.50;99.90;;;;;;5035427;28;20189;-83
2022/04/07 03:07:10;;;;;;;1.13;0.90;;;7.40;99.90;;;;;;5034899;28;20179;-83
2022/04/07 03:09:35;;;;;;;1.30;1.10;;;7.40;99.90;;;;;;5036873;28;20202;-85
2022/04/07 03:12:01;;;;;;;1.10;1.00;;;;;;;;;;5037436;28;20175;-82
2022/04/07 03:14:28;;;;;;;3.20;1.20;;;7.40;99.90;;;;;;5037703;28;20174;-83
2022/04/07 03:16:54;;;;;;;1.30;1.00;;;7.40;99.90;;;;;;5035333;28;20183;-83
2022/04/07 03:19:20;;;;;;;2.13;1.30;;;7.40;99.90;;;;;;5036542;28;20194;-82
2022/04/07 03:21:45;;;;;;;1.57;1.33;;;7.40;99.90;;;;;;5036930;28;20668;-82
2022/04/07 03:24:12;;;;;;;0.73;0.73;;;7.40;99.90;;;;;;5037299;28;20520;-82
2022/04/07 03:26:38;;;;;;;1.40;1.30;;;7.30;99.90;;;;;;5037679;28;20170;-83
2022/04/07 03:29:05;;;;;;;1.50;1.20;;;7.30;99.90;;;;;;5035251;28;20198;-82
2022/04/07 03:31:31;;;;;;;1.20;1.10;;;7.30;99.90;;;;;;5035811;28;20199;-83
2022/04/07 03:33:57;;;;;;;2.70;1.10;;;7.30;99.90;;;;;;5035257;28;20667;-83
2022/04/07 03:36:23;;;;;;;1.00;0.90;;;7.30;99.90;;;;;;5038217;28;20179;-82
2022/04/07 03:38:51;;;;;;;0.80;0.80;;;7.30;99.90;;;;;;5035422;28;20198;-83
2022/04/07 03:41:17;;;;;;;2.10;1.13;;;7.30;99.90;;;;;;5037779;28;20325;-83
2022/04/07 03:43:43;;;;;;;1.40;1.30;;;7.40;99.90;;;;;;5038863;28;20186;-82
2022/04/07 03:46:09;;;;;;;1.40;1.30;;;7.40;99.90;;;;;;5039307;28;20270;-82
2022/04/07 03:48:35;;;;;;;1.93;1.10;;;7.40;99.90;;;;;;5039608;28;20289;-82
2022/04/07 03:51:01;;;;;;;1.37;1.20;;;7.30;99.90;;;;;;5041348;28;20199;-82
2022/04/07 03:53:27;;;;;;;0.80;0.80;;;7.40;99.90;;;;;;5040700;28;20178;-82
2022/04/07 03:55:53;;;;;;;1.70;1.40;;;7.40;99.90;;;;;;5040008;28;20702;-83
2022/04/07 03:58:19;;;;;;;1.83;1.03;;;;;;;;;;5039944;28;20202;-82
2022/04/07 04:00:44;;;;;;;1.60;1.17;;;7.40;99.90;;;;;;5039977;28;20669;-83
2022/04/07 04:03:10;;;;;;;2.27;1.00;;;;;;;;;;5040648;28;20198;-81
2022/04/07 04:05:36;;;;;;;1.23;1.00;;;7.30;99.90;;;;;;5039928;28;20207;-84
2022/04/07 04:08:02;;;;;;;3.10;1.10;;;;;;;;;;5040915;28;20205;-83
2022/04/07 04:10:28;;;;;;;2.87;1.33;;;7.20;99.90;;;;;;5039734;28;20207;-81
2022/04/07 04:12:54;;;;;;;1.57;1.17;;;;;;;;;;5039525;28;20280;-83
2022/04/07 04:15:20;;;;;;;1.70;1.10;;;7.10;99.90;;;;;;5040935;28;20174;-84
2022/04/07 04:17:46;;;;;;;1.23;1.13;;;;;;;;;;5041404;28;20166;-84
2022/04/07 04:20:12;;;;;;;1.67;1.00;;;7.10;99.90;;;;;;5044295;28;20203;-83
2022/04/07 04:22:38;;;;;;;1.60;1.50;;;;;;;;;;5051682;28;20174;-81
2022/04/07 04:25:04;;;;;;;1.47;1.30;;;7.00;99.90;;;;;;5051081;28;20174;-82
2022/04/07 04:27:30;;;;;;;2.03;0.93;;;;;;;;;;5049725;28;20449;-83
2022/04/07 04:29:56;;;;;;;1.30;1.20;;;7.00;99.90;;;;;;5039918;28;20459;-81
2022/04/07 04:32:22;;;;;;;2.10;1.37;;;7.00;99.90;;;;;;5038507;28;20222;-82
2022/04/07 04:34:48;;;;;;;1.73;1.63;;;6.90;99.90;;;;;;5040125;28;20181;-82
2022/04/07 04:37:14;;;;;;;3.83;1.23;;;;;;;;;;5038867;28;20190;-83
2022/04/07 04:39:40;;;;;;;1.83;1.30;;;;;;;;;;5040071;28;20201;-83
2022/04/07 04:42:06;;;;;;;1.13;1.03;;;6.90;99.90;;;;;;5039027;28;20425;-83
2022/04/07 04:44:32;;;;;;;1.43;1.30;;;6.90;99.90;;;;;;5038849;28;20617;-83
2022/04/07 04:46:58;;;;;;;1.13;1.03;;;7.00;99.90;;;;;;5038836;28;20425;-83
2022/04/07 04:49:23;;;;;;;1.20;1.10;;;7.00;99.90;;;;;;5040353;28;20443;-83
2022/04/07 04:51:49;;;;;;;0.90;0.90;;;;;;;;;;5039538;28;20558;-83
2022/04/07 04:54:15;;;;;;;1.43;1.33;;;7.10;99.90;;;;;;5041676;28;20170;-83
2022/04/07 04:56:41;;;;;;;3.33;1.37;;;7.10;99.90;;;;;;5040439;28;20185;-84
2022/04/07 04:59:07;;;;;;;0.80;0.80;;;7.10;99.90;;;;;;5040688;28;20266;-83
2022/04/07 05:01:33;;;;;;;2.40;1.00;;;7.10;99.90;;;;;;5039520;28;20429;-83
2022/04/07 05:03:59;;;;;;;1.53;1.20;;;7.10;99.90;;;;;;5040472;28;20421;-81
2022/04/07 05:06:25;;;;;;;1.20;1.10;;;7.20;99.90;;;;;;5039089;28;20216;-80
2022/04/07 05:08:51;;;;;;;1.17;1.07;;;7.20;99.90;;;;;;5040803;28;20602;-82
2022/04/07 05:11:16;;;;;;;2.20;0.97;;;7.20;99.90;;;;;;5039937;28;20273;-82
2022/04/07 05:13:42;;;;;;;2.20;0.97;;;7.20;99.90;;;;;;5042541;28;20182;-81
2022/04/07 05:16:08;;;;;;;1.00;0.90;;;7.20;99.90;;;;;;5043478;28;20706;-82
2022/04/07 05:18:34;;;;;;;1.30;0.90;;;7.20;99.90;;;;;;5042822;28;20229;-82
2022/04/07 05:21:00;;;;;;;1.53;1.13;;;7.20;99.90;;;;;;5040470;28;20185;-84
2022/04/07 05:23:28;;;;;;;1.30;1.20;;;7.30;99.90;;;;;;5036994;28;20961;-81
2022/04/07 05:25:54;;;;;;;0.97;0.90;;;7.30;99.90;;;;;;5038788;28;20185;-81
2022/04/07 05:28:21;;;;;;;1.27;0.90;;;7.30;99.90;;;;;;5038598;28;20194;-82
2022/04/07 05:30:47;;;;;;;0.70;0.70;;;7.40;99.90;;;;;;5037236;28;20449;-83
2022/04/07 05:33:13;;;;;;;1.47;0.97;;;7.50;99.90;;;;;;5038861;28;20401;-81
2022/04/07 05:35:38;;;;;;;1.03;0.70;;;7.50;99.90;;;;;;5039275;28;20653;-85
2022/04/07 05:38:04;;;;;;;2.10;0.77;;;7.70;99.90;;;;;;5040118;28;20617;-84
2022/04/07 05:40:30;;;;;;;2.93;1.00;;;7.70;99.90;;;;;;5039120;28;20182;-84
2022/04/07 05:42:59;;;;;;;1.00;0.90;;;;;;;;;;5040457;28;20178;-84
2022/04/07 05:45:24;;;;;;;0.80;0.80;;;7.80;99.90;;;;;;5042116;28;20782;-84
2022/04/07 05:47:50;;;;;;;0.60;0.60;;;;;;;;;;5047423;28;20190;-85
2022/04/07 05:50:17;;;;;;;0.80;0.80;;;7.90;99.90;;;;;;5043507;28;20202;-85
2022/04/07 05:52:43;;;;;;;0.73;0.73;;;;;;;;;;5041293;28;20205;-84
2022/04/07 05:55:09;;;;;;;0.67;0.60;;;;;;;;;;5041720;28;20895;-83
2022/04/07 05:57:35;;;;;;;2.70;0.60;;;8.10;99.90;;;;;;5042573;28;20443;-83
2022/04/07 06:00:13;;;;;;;0.60;0.60;;;8.10;99.90;;;;;;5045654;28;20565;-84
2022/04/07 06:02:39;;;;;;;1.03;0.60;;;8.10;99.90;;;;;;5044211;28;20678;-83
2022/04/07 06:05:07;;;;;;;0.93;0.80;;;8.00;99.90;;;;;;5045563;28;20411;-84
2022/04/07 06:07:33;;;;;;;0.90;0.83;;;;;;;;;;5048625;28;20257;-84
2022/04/07 06:09:58;;;;;;;0.70;0.70;;;8.00;99.90;;;;;;5055415;28;20473;-81
2022/04/07 06:12:24;;;;;;;0.63;0.60;;;;;;;;;;5057759;28;20209;-84
2022/04/07 06:14:50;;;;;;;1.07;0.90;;;8.00;99.90;;;;;;5057076;28;20154;-82
2022/04/07 06:17:16;;;;;;;0.50;0.50;;;;;;;;;;5042478;28;20186;-83
2022/04/07 06:19:42;;;;;;;1.20;0.83;;;8.20;99.90;;;;;;5040354;28;20200;-82
2022/04/07 06:22:08;;;;;;;0.70;0.70;;;;;;;;;;5038864;28;20210;-84
2022/04/07 06:24:34;;;;;;;1.10;0.60;;;8.30;99.90;;;;;;5038079;28;20274;-82
2022/04/07 06:27:00;;;;;;;0.40;0.40;;;8.40;99.90;;;;;;5037478;28;20209;-84
2022/04/07 06:29:26;;;;;;;0.67;0.60;;;8.50;99.90;;;;;;5040223;28;20282;-83
2022/04/07 06:31:52;;;;;;;0.77;0.70;;;;;;;;;;5036900;28;20223;-82
2022/04/07 06:34:20;;;;;;;0.50;0.50;;;8.60;99.90;;;;;;5039735;28;20640;-83
2022/04/07 06:36:47;;;;;;;1.07;0.50;;;8.70;99.90;;;;;;5036905;28;20218;-84
2022/04/07 06:39:13;;;;;;;1.20;0.60;;;8.80;99.90;;;;;;5037187;28;20269;-83
2022/04/07 06:41:38;;;;;;;1.00;0.50;;;8.80;99.90;;;;;;5037761;28;20594;-84
2022/04/07 06:44:05;;;;;;;0.53;0.53;;;8.80;99.90;;;;;;5036702;28;20207;-82
2022/04/07 06:46:32;;;;;;;0.60;0.60;;;8.90;99.90;;;;;;5037450;28;20185;-84
2022/04/07 06:49:01;;;;;;;0.50;0.50;;;9.00;99.90;;;;;;5036963;28;20206;-83
2022/04/07 06:51:28;;;;;;;1.00;0.50;;;9.00;99.90;;;;;;5039417;28;20663;-83
2022/04/07 06:53:53;;;;;;;0.50;0.50;;;9.10;99.90;;;;;;5036739;28;20179;-81
2022/04/07 06:56:19;;;;;;;0.50;0.50;;;9.20;99.90;;;;;;5037309;28;20203;-82
2022/04/07 06:58:45;;;;;;;2.93;0.53;;;9.20;99.90;;;;;;5036888;28;20195;-83
2022/04/07 07:01:11;;;;;;;0.40;0.40;;;;;;;;;;5037891;28;20178;-82
2022/04/07 07:03:36;;;;;;;0.63;0.50;;;9.30;99.90;;;;;;5037348;28;20185;-82
2022/04/07 07:06:02;;;;;;;0.97;0.50;;;;;;;;;;5038715;28;20196;-82
2022/04/07 07:08:28;;;;;;;0.53;0.47;;;9.50;99.90;;;;;;5039025;28;20205;-81
2022/04/07 07:10:54;;;;;;;0.60;0.50;;;9.50;99.90;;;;;;5038862;28;20198;-83
2022/04/07 07:13:21;;;;;;;0.30;0.30;;;9.80;99.90;;;;;;5037315;28;20664;-83
2022/04/07 07:15:48;;;;;;;1.53;0.40;;;9.80;99.90;;;;;;5036821;28;20208;-83
2022/04/07 07:18:14;;;;;;;0.43;0.40;;;10.10;99.90;;;;;;5038284;28;20199;-81
2022/04/07 07:20:40;;;;;;;0.40;0.40;;;;;;;;;;5036734;28;20183;-81
2022/04/07 07:23:07;;;;;;;0.60;0.60;;;10.30;99.90;;;;;;5036630;28;20271;-83
2022/04/07 07:25:33;;;;;;;3.80;0.60;;;10.30;99.90;;;;;;5037030;28;20283;-83
2022/04/07 07:28:00;;;;;;;0.40;0.40;;;10.60;99.90;;;;;;5037658;28;20189;-83
2022/04/07 07:30:27;;;;;;;0.93;0.60;;;10.70;99.90;;;;;;5036154;28;20206;-84
2022/04/07 07:32:54;;;;;;;0.50;0.50;;;11.00;99.90;;;;;;5036552;28;20197;-82
2022/04/07 07:35:21;;;;;;;0.60;0.60;;;10.90;99.90;;;;;;5038117;28;20200;-82
2022/04/07 07:37:54;;;;;;;0.60;0.50;;;10.60;99.90;;;;;;5037206;28;20194;-84
2022/04/07 07:40:23;;;;;;;1.60;0.40;;;11.00;99.90;;;;;;5037042;28;20205;-83
2022/04/07 07:42:50;;;;;;;0.50;0.50;;;11.10;99.90;;;;;;5035237;28;20185;-82
2022/04/07 07:45:17;;;;;;;4.73;0.70;;;11.40;99.90;;;;;;5037030;28;20545;-83
2022/04/07 07:47:44;;;;;;;0.50;0.43;;;11.70;99.90;;;;;;5035985;28;20670;-81
2022/04/07 07:50:11;;;;;;;0.47;0.47;;;11.60;99.90;;;;;;5034940;28;20226;-83
2022/04/07 07:52:37;;;;;;;1.03;0.50;;;11.70;99.90;;;;;;5035314;28;20179;-83
2022/04/07 07:55:03;;;;;;;0.67;0.60;;;11.20;99.90;;;;;;5036631;28;20181;-83
2022/04/07 07:57:30;;;;;;;0.63;0.53;;;11.10;99.90;;;;;;5035419;28;20178;-83
2022/04/07 07:59:57;;;;;;;0.60;0.60;;;11.30;99.90;;;;;;5035626;28;20659;-81
2022/04/07 08:02:23;;;;;;;1.37;0.60;;;11.50;99.90;;;;;;5037228;28;20182;-83
2022/04/07 08:04:48;;;;;;;0.40;0.40;;;11.80;99.90;;;;;;5036688;28;20181;-83
2022/04/07 08:07:14;;;;;;;0.70;0.70;;;11.90;99.90;;;;;;5035953;28;20178;-85
2022/04/07 08:09:40;;;;;;;1.03;0.60;;;12.10;99.90;;;;;;5036733;28;20194;-83
2022/04/07 08:12:07;;;;;;;1.00;0.70;;;12.30;99.90;;;;;;5037073;28;20183;-81
2022/04/07 08:14:33;;;;;;;0.50;0.50;;;12.40;99.90;;;;;;5037011;28;20182;-83
2022/04/07 08:16:59;;;;;;;2.50;0.43;;;12.60;99.90;;;;;;5038372;28;20260;-81
2022/04/07 08:19:25;;;;;;;1.43;0.40;;;12.70;99.90;;;;;;5040377;28;20195;-80
2022/04/07 08:21:51;;;;;;;0.50;0.50;;;12.90;99.90;;;;;;5038487;28;20181;-80
2022/04/07 08:24:19;;;;;;;1.43;0.70;;;13.00;99.80;;;;;;5036087;28;20261;-79
2022/04/07 08:26:45;;;;;;;0.90;0.63;;;13.40;99.10;;;;;;5037496;28;20166;-81
2022/04/07 08:29:10;;;;;;;1.50;0.77;;;14.30;98.30;;;;;;5042159;28;20595;-84
2022/04/07 08:31:36;;;;;;;2.10;1.20;;;15.00;96.40;;;;;;5040105;28;20210;-81
2022/04/07 08:34:02;;;;;;;0.73;0.60;;;14.80;94.90;;;;;;5040038;28;20659;-82
2022/04/07 08:36:27;;;;;;;2.67;0.73;;;14.40;95.70;;;;;;5039279;28;20174;-83
2022/04/07 08:38:53;;;;;;;1.80;0.40;;;14.40;95.30;;;;;;5041994;28;20198;-83
2022/04/07 08:41:19;;;;;;;1.03;0.60;;;14.10;94.30;;;;;;5040060;28;20232;-83
2022/04/07 08:43:45;;;;;;;0.50;0.50;;;13.70;94.30;;;;;;5041226;28;20261;-79
2022/04/07 08:46:12;;;;;;;0.80;0.50;;;13.50;94.30;;;;;;5040975;28;20212;-81
2022/04/07 08:48:42;;;;;;;0.53;0.53;;;13.70;94.70;;;;;;5042049;28;20248;-84
2022/04/07 08:51:11;;;;;;;0.70;0.60;;;13.70;94.20;;;;;;5039721;28;20222;-80
2022/04/07 08:53:40;;;;;;;1.60;0.60;;;14.30;93.70;;;;;;5039891;28;20636;-78
2022/04/07 08:56:08;;;;;;;0.80;0.70;;;14.50;93.80;;;;;;5041502;28;20196;-81
2022/04/07 08:58:34;;;;;;;1.30;0.70;;;15.40;91.70;;;;;;5040144;28;20197;-82
2022/04/07 09:01:00;;;;;;;1.00;0.50;;;15.50;91.10;;;;;;5040575;28;20543;-79
2022/04/07 09:03:26;;;;;;;0.83;0.57;;;14.80;90.20;;;;;;5040469;28;20640;-79
2022/04/07 09:06:00;;;;;;;1.80;0.70;;;14.10;90.60;;;;;;5039949;28;20181;-79
2022/04/07 09:08:52;;;;;;;0.47;0.47;;;13.70;91.80;;;;;;5038146;28;20202;-79
2022/04/07 09:11:19;;;;;;;1.90;0.80;;;13.00;91.90;;;;;;5054269;28;20268;-81
2022/04/07 09:13:45;;;;;;;1.23;0.70;;;12.60;92.20;;;;;;5039557;28;20655;-80
2022/04/07 09:16:15;;;;;;;1.13;0.50;;;12.30;93.20;;;;;;5039358;28;20591;-82
2022/04/07 09:18:43;;;;;;;1.67;0.60;;;12.20;93.50;;;;;;5039700;28;20198;-80
2022/04/07 09:21:27;;;;;;;0.73;0.60;;;12.30;93.70;;;;;;5038295;28;20622;-81
2022/04/07 09:23:56;;;;;;;1.13;0.77;;;12.60;94.00;;;;;;5038653;28;20210;-83
2022/04/07 09:26:22;;;;;;;1.13;0.70;;;12.70;93.90;;;;;;5038679;28;20182;-83
2022/04/07 09:28:48;;;;;;;0.60;0.60;;;13.00;93.70;;;;;;5039382;28;20541;-83
2022/04/07 09:31:15;;;;;;;0.40;0.40;;;13.00;93.20;;;;;;5040668;28;20189;-80
2022/04/07 09:33:41;;;;;;;1.17;0.50;;;12.60;93.30;;;;;;5038370;28;20174;-81
2022/04/07 09:36:11;;;;;;;0.90;0.70;;;12.40;94.40;;;;;;5040554;28;20170;-84
2022/04/07 09:38:40;;;;;;;0.67;0.60;;;12.50;94.20;;;;;;5038343;28;20705;-80
2022/04/07 09:41:06;;;;;;;2.27;0.60;;;13.10;93.80;;;;;;5038902;28;20261;-81
2022/04/07 09:43:47;;;;;;;0.60;0.40;;;13.30;92.50;;;;;;5038626;28;20178;-82
2022/04/07 09:46:18;;;;;;;0.50;0.50;;;13.30;93.30;;;;;;5039306;28;20186;-82
2022/04/07 09:49:03;;;;;;;1.43;0.43;;;13.80;92.20;;;;;;5039204;28;20198;-82
2022/04/07 09:51:36;;;;;;;0.40;0.40;;;14.20;91.40;;;;;;5038758;28;20210;-81
2022/04/07 09:54:03;;;;;;;0.50;0.50;;;14.40;90.90;;;;;;5040441;28;20639;-83
2022/04/07 09:56:29;;;;;;;0.60;0.50;;;14.60;90.40;;;;;;5039246;28;20179;-82
2022/04/07 09:58:55;;;;;;;0.70;0.60;;;14.90;90.20;;;;;;5041108;28;20194;-82
2022/04/07 10:01:22;;;;;;;0.93;0.50;;;15.00;88.70;;;;;;5040860;28;20226;-82
2022/04/07 10:03:52;;;;;;;0.30;0.30;;;14.90;87.40;;;;;;5039976;28;20187;-82
2022/04/07 10:06:18;;;;;;;0.70;0.50;;;15.40;87.10;;;;;;5039747;28;20184;-81
2022/04/07 10:08:48;;;;;;;3.20;0.57;;;15.10;85.80;;;;;;5038792;28;20222;-82
2022/04/07 10:11:16;;;;;;;1.07;0.60;;;14.80;86.70;;;;;;5038313;28;20203;-83
2022/04/07 10:13:46;;;;;;;2.17;0.80;;;14.80;87.60;;;;;;5039416;28;20168;-82
2022/04/07 10:16:15;;;;;;;0.43;0.43;;;15.10;87.00;;;;;;5038255;28;20577;-81
2022/04/07 10:18:47;;;;;;;1.37;0.47;;;15.10;87.00;;;;;;5038445;28;20286;-82
2022/04/07 10:21:39;;;;;;;0.73;0.53;;;15.40;86.00;;;;;;5036666;28;20174;-82
2022/04/07 10:24:34;;;;;;;0.40;0.40;;;15.70;85.40;;;;;;5039963;28;20175;-83
2022/04/07 10:27:02;;;;;;;2.37;0.70;;;15.50;84.60;;;;;;5040340;28;20263;-82
2022/04/07 10:29:29;;;;;;;2.30;0.53;;;15.70;83.90;;;;;;5038529;28;20250;-80
2022/04/07 10:32:22;;;;;;;0.97;0.50;;;15.80;86.50;;;;;;5037653;28;20614;-81
2022/04/07 10:34:59;;;;;;;0.87;0.50;;;16.30;84.30;;;;;;5036615;28;20224;-83
2022/04/07 10:37:44;;;;;;;0.60;0.60;;;16.20;79.60;;;;;;5038034;28;20264;-81
2022/04/07 10:40:39;;;;;;;5.53;0.63;;;15.30;82.80;;;;;;5038568;28;20196;-82
2022/04/07 10:43:09;;;;;;;1.33;1.00;;;15.30;84.10;;;;;;5039629;28;20181;-83
2022/04/07 10:45:40;;;;;;;1.17;0.60;;;14.80;83.70;;;;;;5038389;28;20189;-82
2022/04/07 10:48:25;;;;;;;1.50;0.60;;;14.60;85.80;;;;;;5039685;28;20165;-82
2022/04/07 10:50:56;;;;;;;1.60;0.50;;;14.60;85.50;;;;;;5038799;28;20208;-83
2022/04/07 10:53:25;;;;;;;0.93;0.67;;;14.70;86.50;;;;;;5040290;28;20294;-82
2022/04/07 10:55:56;;;;;;;0.47;0.47;;;15.30;85.90;;;;;;5044054;28;20175;-84
2022/04/07 10:58:36;;;;;;;0.80;0.80;;;15.30;84.80;;;;;;5036495;28;20338;-84
2022/04/07 11:01:03;;;;;;;1.37;0.57;;;15.50;84.90;;;;;;5033887;28;20171;-83
2022/04/07 11:03:29;;;;;;;1.67;0.37;;;15.30;85.50;;;;;;5034689;28;20175;-82
2022/04/07 11:06:09;;;;;;;0.93;0.53;;;15.30;85.00;;;;;;5034945;28;20227;-81
2022/04/07 11:08:35;;;;;;;1.13;0.60;;;15.00;84.30;;;;;;5033708;28;20259;-80
2022/04/07 11:11:51;;;;;;;2.20;0.70;;;15.10;84.70;;;;;;5036410;28;20249;-81
2022/04/07 11:14:26;;;;;;;0.60;0.50;;;15.40;84.50;;;;;;5036506;28;20175;-80
2022/04/07 11:16:56;;;;;;;0.90;0.70;;;15.70;83.50;;;;;;5042902;28;20176;-81
2022/04/07 11:19:44;;;;;;;1.37;0.73;;;15.90;82.60;;;;;;5036029;28;20241;-80
2022/04/07 11:22:12;;;;;;;1.67;0.80;;;16.30;83.20;;;;;;5037356;28;20181;-79
2022/04/07 11:24:45;;;;;;;0.80;0.77;;;16.60;82.60;;;;;;5035205;28;20178;-83
2022/04/07 11:27:36;;;;;;;0.60;0.60;;;16.60;84.00;;;;;;5037018;28;20176;-80
2022/04/07 11:30:07;;;;;;;0.80;0.57;;;16.30;80.90;;;;;;5035402;28;20201;-80
2022/04/07 11:32:33;;;;;;;0.60;0.60;;;16.50;81.70;;;;;;5036641;28;20175;-80
2022/04/07 11:35:17;;;;;;;2.00;0.57;;;16.60;80.30;;;;;;5034734;28;20178;-80
2022/04/07 11:37:44;;;;;;;0.73;0.60;;;16.00;83.00;;;;;;5036614;28;20254;-81
2022/04/07 11:40:10;;;;;;;0.40;0.40;;;15.80;81.80;;;;;;5035441;28;20231;-80
2022/04/07 11:42:37;;;;;;;2.77;0.70;;;16.00;82.70;;;;;;5036201;28;20183;-80
2022/04/07 11:45:04;;;;;;;0.60;0.57;;;16.20;80.70;;;;;;5036946;28;20179;-78
2022/04/07 11:47:34;;;;;;;1.17;0.60;;;16.10;82.10;;;;;;5036672;28;20178;-85
2022/04/07 11:50:02;;;;;;;0.57;0.57;;;16.20;80.90;;;;;;5035590;28;20626;-79
2022/04/07 11:52:30;;;;;;;0.63;0.60;;;16.00;81.80;;;;;;5037600;28;20174;-80
2022/04/07 11:54:58;;;;;;;1.40;0.53;;;16.70;80.50;;;;;;5024443;28;20208;-80
2022/04/07 11:57:25;;;;;;;0.67;0.50;;;16.90;80.20;;;;;;5049683;28;20187;-81
2022/04/07 12:00:00;;;;;;;2.50;0.67;;;17.50;79.20;;;;;;5034705;28;20191;-81
2022/04/07 12:02:29;;;;;;;1.13;0.70;;;17.80;76.60;;;;;;5035718;28;20238;-80
2022/04/07 12:04:56;;;;;;;0.60;0.50;;;17.60;77.30;;;;;;5038328;28;20175;-79
2022/04/07 12:07:23;;;;;;;1.33;0.70;;;16.90;76.30;;;;;;5039154;28;20182;-80
2022/04/07 12:09:49;;;;;;;0.60;0.60;;;16.60;77.60;;;;;;5037975;28;20255;-80
2022/04/07 12:12:19;;;;;;;1.50;0.70;;;17.00;77.30;;;;;;5038419;28;20175;-80
2022/04/07 12:14:46;;;;;;;0.37;0.37;;;16.50;77.00;;;;;;5038490;28;20196;-84
2022/04/07 12:17:11;;;;;;;0.83;0.43;;;16.00;78.20;;;;;;5037412;28;20183;-80
2022/04/07 12:19:45;;;;;;;0.60;0.40;;;15.50;78.20;;;;;;5037895;28;20197;-80
2022/04/07 12:22:13;;;;;;;2.27;0.57;;;15.10;79.70;;;;;;5036324;28;20200;-79
2022/04/07 12:24:39;;;;;;;0.60;0.50;;;15.40;80.00;;;;;;5037864;28;20177;-84
2022/04/07 12:27:08;;;;;;;1.03;0.60;;;15.00;80.30;;;;;;5037731;28;20191;-79
2022/04/07 12:29:34;;;;;;;0.30;0.30;;;14.90;82.60;;;;;;5037313;28;20196;-79
2022/04/07 12:32:10;;;;;;;0.60;0.37;;;14.90;82.10;;;;;;5036495;28;20208;-80
2022/04/07 12:34:51;;;;;;;0.37;0.37;;;14.90;83.80;;;;;;5039331;28;20653;-84
2022/04/07 12:37:36;;;;;;;3.57;0.50;;;15.00;83.30;;;;;;5041784;28;20266;-82
2022/04/07 12:40:06;;;;;;;0.40;0.20;;;14.40;85.70;;;;;;5040400;28;20664;-82
2022/04/07 12:42:32;;;;;;;0.50;0.30;;;14.30;86.80;;;;;;5041383;28;20178;-82
2022/04/07 12:45:07;;;;;;;0.40;0.40;;;13.90;88.00;;;;;;5041520;28;20191;-81
2022/04/07 12:47:33;;;;;;;0.77;0.30;;;13.70;88.40;;;;;;5041384;28;20246;-82
2022/04/07 12:50:01;;;;;;;0.57;0.40;;;13.40;89.50;;;;;;5041266;28;20206;-82
2022/04/07 12:52:33;;;;;;;0.40;0.40;;;13.30;90.40;;;;;;5040609;28;20170;-83
2022/04/07 12:55:01;;;;;;;0.50;0.50;;;13.20;90.70;;;;;;5040986;28;20174;-81
2022/04/07 12:57:32;;;;;;;0.63;0.40;;;13.10;91.50;;;;;;5042038;28;20185;-82
2022/04/07 13:00:02;;;;;;;3.30;0.50;;;12.80;93.20;;;;;;5040338;28;20205;-83
2022/04/07 13:02:42;;;;;;;0.40;0.40;;;12.50;96.30;;;;;;5039458;28;20534;-81
2022/04/07 13:05:08;;;;;;;3.20;0.47;;;12.30;96.80;;;;;;5039875;28;20170;-83
2022/04/07 13:07:34;;;;;;;0.30;0.30;;;12.10;99.40;;;;;;5040404;28;20184;-82